createdAt,value
2022-10-02T00:01:20.619Z,10.10
2022-10-02T00:06:26.106Z,10.00
2022-10-02T00:11:35.268Z,10.10
2022-10-02T00:16:42.388Z,10.10
2022-10-02T00:21:56.961Z,10.10
2022-10-02T00:27:05.470Z,9.80
2022-10-02T00:32:20.420Z,9.90
2022-10-02T00:37:34.799Z,9.70
2022-10-02T00:43:03.765Z,9.50
2022-10-02T00:48:20.337Z,9.80
2022-10-02T00:53:33.490Z,10.10
2022-10-02T00:59:00.118Z,10.00
2022-10-02T01:04:08.475Z,10.00
2022-10-02T01:09:11.992Z,10.00
2022-10-02T01:14:15.436Z,9.70
2022-10-02T01:19:29.106Z,9.60
2022-10-02T01:24:37.128Z,9.80
2022-10-02T01:29:42.921Z,9.80
2022-10-02T01:34:46.849Z,9.70
2022-10-02T01:39:50.333Z,9.70
2022-10-02T01:44:54.978Z,9.80
2022-10-02T01:50:12.236Z,9.70
2022-10-02T01:55:26.203Z,9.60
2022-10-02T02:00:40.989Z,9.50
2022-10-02T02:05:49.012Z,9.60
2022-10-02T02:11:02.197Z,9.50
2022-10-02T02:16:11.524Z,9.30
2022-10-02T02:21:21.939Z,9.40
2022-10-02T02:26:28.072Z,9.30
2022-10-02T02:31:37.321Z,9.20
2022-10-02T02:36:44.628Z,9.10
2022-10-02T02:41:52.877Z,9.00
2022-10-02T02:47:03.955Z,9.10
2022-10-02T02:52:12.040Z,9.00
2022-10-02T02:57:18.173Z,9.10
2022-10-02T03:02:22.612Z,9.10
2022-10-02T03:07:25.951Z,8.80
2022-10-02T03:12:40.771Z,8.60
2022-10-02T03:18:00.360Z,8.80
2022-10-02T03:23:12.427Z,8.90
2022-10-02T03:28:37.349Z,8.70
2022-10-02T03:33:46.457Z,8.90
2022-10-02T03:39:12.610Z,8.80
2022-10-02T03:44:13.393Z,8.70
2022-10-02T03:49:17.844Z,8.50
2022-10-02T03:54:22.096Z,8.50
2022-10-02T03:59:35.000Z,8.70
2022-10-02T04:04:47.891Z,8.80
2022-10-02T04:09:58.593Z,8.90
2022-10-02T04:15:07.013Z,8.90
2022-10-02T04:20:18.458Z,8.90
2022-10-02T04:25:25.070Z,9.00
2022-10-02T04:30:30.171Z,9.10
2022-10-02T04:35:46.175Z,9.30
2022-10-02T04:41:10.116Z,9.40
2022-10-02T04:46:30.828Z,9.50
2022-10-02T04:51:50.346Z,9.70
2022-10-02T04:57:12.055Z,9.80
2022-10-02T05:02:35.857Z,9.80
2022-10-02T05:07:57.506Z,9.90
2022-10-02T05:13:18.942Z,9.90
2022-10-02T05:18:37.219Z,9.90
2022-10-02T05:23:54.389Z,9.70
2022-10-02T05:29:19.265Z,9.70
2022-10-02T05:34:36.421Z,9.60
2022-10-02T05:39:48.126Z,9.80
2022-10-02T05:44:53.950Z,9.80
2022-10-02T05:50:00.544Z,10.00
2022-10-02T05:55:14.309Z,10.20
2022-10-02T06:00:27.470Z,10.50
2022-10-02T06:05:40.226Z,10.90
2022-10-02T06:10:49.929Z,11.20
2022-10-02T06:16:02.091Z,11.20
2022-10-02T06:21:09.144Z,11.30
2022-10-02T06:33:47.990Z,11.10
2022-10-02T06:39:15.131Z,11.30
2022-10-02T06:44:23.342Z,11.50
2022-10-02T06:49:39.472Z,11.50
2022-10-02T06:54:56.189Z,11.90
2022-10-02T07:00:09.972Z,12.10
2022-10-02T07:05:41.028Z,12.90
2022-10-02T07:10:52.185Z,13.70
2022-10-02T07:16:30.988Z,14.30
2022-10-02T07:21:44.802Z,15.10
2022-10-02T07:26:54.051Z,15.50
2022-10-02T07:55:08.822Z,17.00
2022-10-02T08:00:15.082Z,17.50
2022-10-02T08:05:21.037Z,16.60
2022-10-02T08:10:31.224Z,15.60
2022-10-02T08:15:38.592Z,14.90
2022-10-02T08:20:43.775Z,14.40
2022-10-02T08:25:52.599Z,14.80
2022-10-02T08:30:56.859Z,15.00
2022-10-02T08:36:19.199Z,15.40
2022-10-02T08:41:47.811Z,16.30
2022-10-02T08:47:14.927Z,16.80
2022-10-02T08:52:34.396Z,16.50
2022-10-02T08:58:00.126Z,15.80
2022-10-02T09:03:44.235Z,15.70
2022-10-02T09:09:10.768Z,15.70
2022-10-02T09:14:42.868Z,15.70
2022-10-02T09:19:57.267Z,15.60
2022-10-02T09:25:21.939Z,15.30
2022-10-02T09:30:50.583Z,15.60
2022-10-02T09:36:35.693Z,15.50
2022-10-02T09:42:15.339Z,16.00
2022-10-02T09:47:40.687Z,16.60
2022-10-02T09:53:19.231Z,17.30
2022-10-02T09:58:45.876Z,18.30
2022-10-02T10:04:09.231Z,17.90
2022-10-02T10:09:40.950Z,17.00
2022-10-02T10:15:09.018Z,16.10
2022-10-02T10:20:42.206Z,14.00
2022-10-02T10:25:55.652Z,13.90
2022-10-02T10:31:28.362Z,15.00
2022-10-02T10:37:14.946Z,15.70
2022-10-02T10:43:07.481Z,15.70
2022-10-02T10:48:34.870Z,15.60
2022-10-02T10:54:17.973Z,15.20
2022-10-02T10:59:53.300Z,15.00
2022-10-02T11:05:18.416Z,14.60
2022-10-02T11:10:28.751Z,14.40
2022-10-02T11:15:59.827Z,14.10
2022-10-02T11:21:28.847Z,14.20
2022-10-02T11:26:46.537Z,14.20
2022-10-02T11:32:19.366Z,14.30
2022-10-02T11:37:38.894Z,14.60
2022-10-02T11:43:11.510Z,15.00
2022-10-02T11:48:51.749Z,16.00
2022-10-02T11:54:10.863Z,16.70
2022-10-02T11:59:42.079Z,18.10
2022-10-02T12:04:55.281Z,18.00
2022-10-02T12:10:17.101Z,18.60
2022-10-02T12:15:30.550Z,19.00
2022-10-02T12:21:04.161Z,18.30
2022-10-02T12:26:35.238Z,16.30
2022-10-02T12:31:51.477Z,16.80
2022-10-02T12:36:59.561Z,17.20
2022-10-02T12:42:15.630Z,17.10
2022-10-02T12:47:50.325Z,17.50
2022-10-02T12:53:22.168Z,17.60
2022-10-02T12:58:34.416Z,19.50
2022-10-02T13:04:19.241Z,20.00
2022-10-02T13:09:42.759Z,18.60
2022-10-02T13:15:06.140Z,18.10
2022-10-02T13:20:20.992Z,17.20
2022-10-02T13:25:38.011Z,17.60
2022-10-02T13:30:48.987Z,17.30
2022-10-02T13:36:03.692Z,17.20
2022-10-02T13:41:18.418Z,16.90
2022-10-02T13:46:33.659Z,16.70
2022-10-02T13:51:46.447Z,17.50
2022-10-02T13:56:55.555Z,18.00
2022-10-02T14:02:21.025Z,17.90
2022-10-02T14:07:49.227Z,18.50
2022-10-02T14:13:05.850Z,19.00
2022-10-02T14:18:26.326Z,18.90
2022-10-02T14:23:56.098Z,18.50
2022-10-02T14:29:18.008Z,18.60
2022-10-02T14:35:06.467Z,19.20
2022-10-02T14:40:17.305Z,19.00
2022-10-02T14:45:50.767Z,18.70
2022-10-02T14:51:13.901Z,18.10
2022-10-02T14:56:48.010Z,17.60
2022-10-02T15:01:59.950Z,17.30
2022-10-02T15:07:07.806Z,17.10
2022-10-02T15:12:18.324Z,16.90
2022-10-02T15:17:50.827Z,16.90
2022-10-02T15:23:00.083Z,16.70
2022-10-02T15:28:35.224Z,17.00
2022-10-02T15:33:44.249Z,16.90
2022-10-02T15:38:59.798Z,16.50
2022-10-02T15:44:10.819Z,16.20
2022-10-02T15:49:21.435Z,15.60
2022-10-02T15:54:44.967Z,15.30
2022-10-02T16:00:09.304Z,15.20
2022-10-02T16:05:29.457Z,14.90
2022-10-02T16:10:37.436Z,14.60
2022-10-02T16:15:51.330Z,14.20
2022-10-02T16:21:12.853Z,13.90
2022-10-02T16:26:25.331Z,13.80
2022-10-02T16:31:50.507Z,13.40
2022-10-02T16:36:57.121Z,13.50
2022-10-02T16:42:02.523Z,13.10
2022-10-02T16:47:12.700Z,12.60
2022-10-02T16:52:20.893Z,12.20
2022-10-02T16:57:29.839Z,12.00
2022-10-02T17:02:46.196Z,11.70
2022-10-02T17:07:54.687Z,11.30
2022-10-02T17:13:07.455Z,11.10
2022-10-02T17:18:27.842Z,10.90
2022-10-02T17:23:39.257Z,10.70
2022-10-02T17:28:48.752Z,10.50
2022-10-02T17:33:56.481Z,10.50
2022-10-02T17:39:27.424Z,10.50
2022-10-02T17:44:45.397Z,10.40
2022-10-02T17:50:10.768Z,10.30
2022-10-02T17:55:47.099Z,10.20
2022-10-02T18:01:05.901Z,10.20
2022-10-02T18:06:22.012Z,10.20
2022-10-02T18:11:44.117Z,10.30
2022-10-02T18:17:03.987Z,10.50
2022-10-02T18:22:24.923Z,10.30
2022-10-02T18:28:04.354Z,10.30
2022-10-02T18:33:47.097Z,10.60
2022-10-02T18:38:59.299Z,10.40
2022-10-02T18:44:16.785Z,10.50
2022-10-02T18:49:40.351Z,10.60
2022-10-02T18:54:58.710Z,10.50
2022-10-02T19:00:13.653Z,10.20
2022-10-02T19:05:26.948Z,10.00
2022-10-02T19:10:48.075Z,9.90
2022-10-02T19:15:53.289Z,10.10
2022-10-02T19:21:03.338Z,10.30
2022-10-02T19:26:18.546Z,10.20
2022-10-02T19:31:27.661Z,10.30
2022-10-02T19:36:36.399Z,10.00
2022-10-02T19:41:44.712Z,10.00
2022-10-02T19:46:53.096Z,10.00
2022-10-02T19:51:57.061Z,10.00
2022-10-02T19:57:07.141Z,10.10
2022-10-02T20:02:16.325Z,10.10
2022-10-02T20:07:21.073Z,10.20
2022-10-02T20:12:31.187Z,9.90
2022-10-02T20:17:37.567Z,9.80
2022-10-02T20:22:49.367Z,10.00
2022-10-02T20:27:58.051Z,10.10
2022-10-02T20:33:10.262Z,10.10
2022-10-02T20:38:20.647Z,10.10
2022-10-02T20:43:32.695Z,10.20
2022-10-02T20:49:09.477Z,10.00
2022-10-02T20:54:28.939Z,10.00
2022-10-02T21:00:03.582Z,10.10
2022-10-02T21:05:19.597Z,10.10
2022-10-02T21:10:45.461Z,10.30
2022-10-02T21:16:10.886Z,10.20
2022-10-02T21:21:45.601Z,10.10
2022-10-02T21:27:22.862Z,10.10
2022-10-02T21:33:04.129Z,10.10
2022-10-02T21:38:33.862Z,10.10
2022-10-02T21:44:05.038Z,10.30
2022-10-02T21:49:43.264Z,10.20
2022-10-02T21:55:23.596Z,10.00
2022-10-02T22:00:28.007Z,10.10
2022-10-02T22:06:11.038Z,10.00
2022-10-02T22:11:24.995Z,10.20
2022-10-02T22:16:37.568Z,10.10
2022-10-02T22:21:57.464Z,10.00
2022-10-02T22:27:37.708Z,9.90
2022-10-02T22:33:13.287Z,9.90
2022-10-02T22:38:22.673Z,10.00
2022-10-02T22:43:31.992Z,9.80
2022-10-02T22:48:40.000Z,9.60
2022-10-02T22:53:49.964Z,9.90
2022-10-02T22:59:02.333Z,9.90
2022-10-02T23:04:16.661Z,9.80
2022-10-02T23:09:27.001Z,9.60
2022-10-02T23:14:37.441Z,9.70
2022-10-02T23:19:46.334Z,9.60
2022-10-02T23:24:57.495Z,9.50
2022-10-02T23:30:05.025Z,9.60
2022-10-02T23:35:13.797Z,9.70
2022-10-02T23:40:45.503Z,10.00
2022-10-02T23:45:55.880Z,10.20
2022-10-02T23:51:08.913Z,10.40
2022-10-02T23:56:34.731Z,10.40
